Time;durP1;ratioP1;P1;durP2;ratioP2;P2;SDS_P1;SDS_P2;PMS_P1;PMS_P2;Temp;Humidity;BMP_temperature;BMP_pressure;BME280_temperature;BME280_humidity;BME280_pressure;Samples;Min_cycle;Max_cycle;Signal;HPM_P1;HPM_P2
2023/08/04 00:00:15;;;;;;;23.88;21.60;;;;;;;;;;4719931;30;20067;-95
2023/08/04 00:02:42;;;;;;;23.27;21.60;;;;;;;;;;4719977;30;20506;-93
2023/08/04 00:05:08;;;;;;;20.75;19.35;;;;;;;;;;4720443;30;20502;-96
2023/08/04 00:07:35;;;;;;;21.38;20.00;;;;;;;;;;4720197;30;20083;-93
2023/08/04 00:10:02;;;;;;;21.50;20.20;;;;;;;;;;4723059;30;20040;-94
2023/08/04 00:12:34;;;;;;;22.60;21.17;;;;;;;;;;4723220;30;20519;-94
2023/08/04 00:15:07;;;;;;;21.00;19.58;;;;;;;;;;4723004;30;20033;-93
2023/08/04 00:17:35;;;;;;;26.08;24.23;;;;;;;;;;4722725;30;20494;-93
2023/08/04 00:20:04;;;;;;;26.38;24.48;;;;;;;;;;4738624;30;20499;-94
2023/08/04 00:22:30;;;;;;;24.20;22.30;;;;;;;;;;4722791;30;20556;-94
2023/08/04 00:24:59;;;;;;;23.35;21.65;;;;;;;;;;4723813;30;20045;-95
2023/08/04 00:27:26;;;;;;;21.20;19.58;;;;;;;;;;4722718;30;20052;-95
2023/08/04 00:29:52;;;;;;;23.75;21.80;;;;;;;;;;4728945;30;20025;-92
2023/08/04 00:32:18;;;;;;;23.30;21.63;;;;;;;;;;4734693;30;20091;-95
2023/08/04 00:34:44;;;;;;;24.67;22.98;;;;;;;;;;4725680;30;20131;-94
2023/08/04 00:37:10;;;;;;;22.98;21.40;;;;;;;;;;4737366;30;20049;-93
2023/08/04 00:39:37;;;;;;;21.42;19.80;;;;;;;;;;4965476;24;20043;-94
2023/08/04 00:42:06;;;;;;;22.92;21.33;;;;;;;;;;4762758;30;20058;-94
2023/08/04 00:44:32;;;;;;;25.45;23.50;;;;;;;;;;4762713;30;20068;-94
2023/08/04 00:47:05;;;;;;;22.85;21.35;;;;;;;;;;4741219;30;20039;-93
2023/08/04 00:49:45;;;;;;;24.40;22.77;;;;;;;;;;4739832;30;20542;-94
2023/08/04 00:52:15;;;;;;;23.00;21.40;;;;;;;;;;4739484;30;20044;-95
2023/08/04 00:54:41;;;;;;;25.67;24.00;;;;;;;;;;4741014;30;20429;-94
2023/08/04 00:57:07;;;;;;;23.48;21.95;;;;;;;;;;4740728;30;20086;-94
2023/08/04 00:59:39;;;;;;;24.73;23.02;;;;;;;;;;4739630;30;20106;-93
2023/08/04 01:02:06;;;;;;;25.05;23.23;;;;;;;;;;4739858;30;20036;-94
2023/08/04 01:04:32;;;;;;;25.60;23.40;;;;;;;;;;4739509;30;20131;-93
2023/08/04 01:07:18;;;;;;;20.52;19.05;;;;;;;;;;4739424;30;20036;-95
2023/08/04 01:10:03;;;;;;;24.23;22.42;;;;;;;;;;4739577;30;20028;-94
2023/08/04 01:12:37;;;;;;;26.30;24.52;;;;;;;;;;4739641;30;20439;-92
2023/08/04 01:15:06;;;;;;;24.45;22.80;;;;;;;;;;4739242;30;20028;-94
2023/08/04 01:17:44;;;;;;;26.23;24.52;;;;;;;;;;4739290;30;20040;-94
2023/08/04 01:20:11;;;;;;;27.70;25.80;;;;;;;;;;4738827;30;20093;-94
2023/08/04 01:22:40;;;;;;;27.85;25.95;;;;;;;;;;4739243;30;20479;-95
2023/08/04 01:25:09;;;;;;;25.80;23.95;;;;;;;;;;4739037;30;20115;-93
2023/08/04 01:27:41;;;;;;;26.13;24.13;;;;;;;;;;4738975;30;20032;-96
2023/08/04 01:30:14;;;;;;;28.10;25.98;;;;;;;;;;4739432;30;20079;-94
2023/08/04 01:32:40;;;;;;;29.33;27.15;;;;;;;;;;4734819;30;20082;-95
2023/08/04 01:35:10;;;;;;;26.60;24.65;;;;;;;;;;4721565;30;20040;-94
2023/08/04 01:37:39;;;;;;;28.38;26.00;;;;;;;;;;4721482;30;20068;-95
2023/08/04 01:40:09;;;;;;;23.13;21.33;;;;;;;;;;4718444;30;20065;-95
2023/08/04 01:42:38;;;;;;;21.88;19.95;;;;;;;;;;4721033;30;20033;-94
2023/08/04 01:45:14;;;;;;;18.85;16.98;;;;;;;;;;4735894;30;20098;-95
2023/08/04 01:47:43;;;;;;;20.52;18.80;;;;;;;;;;4735959;30;20040;-94
2023/08/04 01:50:25;;;;;;;21.30;19.50;;;;;;;;;;4736400;30;20040;-94
2023/08/04 01:52:58;;;;;;;14.40;13.20;;;;;;;;;;4735993;30;20029;-94
2023/08/04 01:55:24;;;;;;;18.25;16.35;;;;;;;;;;4735882;30;20033;-93
2023/08/04 01:57:50;;;;;;;14.65;13.38;;;;;;;;;;4735144;30;20041;-94
2023/08/04 02:00:19;;;;;;;13.65;12.45;;;;;;;;;;4735714;30;20040;-94
2023/08/04 02:02:45;;;;;;;14.38;13.10;;;;;;;;;;4735531;30;20029;-95
2023/08/04 02:05:11;;;;;;;16.83;14.90;;;;;;;;;;4735561;30;20037;-96
2023/08/04 02:07:41;;;;;;;17.23;15.68;;;;;;;;;;4735761;30;20051;-96
2023/08/04 02:10:10;;;;;;;16.92;15.65;;;;;;;;;;4735883;30;20129;-95
2023/08/04 02:12:36;;;;;;;17.17;15.98;;;;;;;;;;4735431;30;20174;-95
2023/08/04 02:15:15;;;;;;;15.60;14.38;;;;;;;;;;4735375;30;20047;-96
2023/08/04 02:17:50;;;;;;;17.80;16.10;;;;;;;;;;4735629;30;20044;-96
2023/08/04 02:20:19;;;;;;;17.35;15.90;;;;;;;;;;4735484;30;20040;-95
2023/08/04 02:22:45;;;;;;;13.50;12.25;;;;;;;;;;4735736;30;20041;-94
2023/08/04 02:25:20;;;;;;;15.57;14.20;;;;;;;;;;4751215;30;20028;-95
2023/08/04 02:27:49;;;;;;;13.35;12.27;;;;;;;;;;4747125;30;20043;-93
2023/08/04 02:30:27;;;;;;;13.88;12.57;;;;;;;;;;4735907;30;20075;-95
2023/08/04 02:33:00;;;;;;;16.52;15.00;;;;;;;;;;4735446;30;20036;-95
2023/08/04 02:35:32;;;;;;;14.32;13.18;;;;;;;;;;4726415;30;20037;-96
2023/08/04 02:37:58;;;;;;;16.42;15.15;;;;;;;;;;4719586;30;20037;-95
2023/08/04 02:40:27;;;;;;;16.35;15.25;;;;;;;;;;4721314;30;20041;-95
2023/08/04 02:42:53;;;;;;;18.90;17.45;;;;;;;;;;4706675;30;20095;-94
2023/08/04 02:45:19;;;;;;;18.88;17.48;;;;;;;;;;4735720;30;20036;-95
2023/08/04 02:47:48;;;;;;;19.55;17.75;;;;;;;;;;4738387;30;20043;-93
2023/08/04 02:50:14;;;;;;;18.15;16.38;;;;;;;;;;4738342;30;20028;-95
2023/08/04 02:52:40;;;;;;;15.52;13.98;;;;;;;;;;4738127;30;20044;-96
2023/08/04 02:55:12;;;;;;;15.20;13.70;;;;;;;;;;4738474;30;20033;-95
2023/08/04 02:57:41;;;;;;;18.10;16.17;;;;;;;;;;4738046;30;20154;-95
2023/08/04 03:00:14;;;;;;;14.27;13.00;;;;;;;;;;4733657;30;20033;-95
2023/08/04 03:02:54;;;;;;;16.00;14.80;;;;;;;;;;4720725;30;20045;-95
2023/08/04 03:05:26;;;;;;;17.50;15.93;;;;;;;;;;4721054;30;20033;-95
2023/08/04 03:07:59;;;;;;;16.95;15.30;;;;;;;;;;4720904;30;20068;-94
2023/08/04 03:10:30;;;;;;;14.13;12.88;;;;;;;;;;4721048;30;20483;-95
2023/08/04 03:13:19;;;;;;;14.43;13.02;;;;;;;;;;4722059;30;20095;-95
2023/08/04 03:15:46;;;;;;;18.92;17.23;;;;;;;;;;4721663;30;20028;-96
2023/08/04 03:18:17;;;;;;;17.42;15.60;;;;;;;;;;4733939;30;20048;-94
2023/08/04 03:20:46;;;;;;;15.38;13.98;;;;;;;;;;4743342;30;20043;-95
2023/08/04 03:23:12;;;;;;;20.00;15.88;;;;;;;;;;4739510;30;20055;-95
2023/08/04 03:25:45;;;;;;;14.68;13.30;;;;;;;;;;4719416;30;20483;-95
2023/08/04 03:28:17;;;;;;;12.27;11.10;;;;;;;;;;4736416;30;20093;-95
2023/08/04 03:30:44;;;;;;;12.30;11.05;;;;;;;;;;4737785;30;20043;-96
2023/08/04 03:33:25;;;;;;;14.55;13.05;;;;;;;;;;4737841;30;20047;-95
2023/08/04 03:36:00;;;;;;;15.27;13.88;;;;;;;;;;4738414;30;20032;-96
2023/08/04 03:38:26;;;;;;;12.95;11.85;;;;;;;;;;4747312;30;20033;-96
2023/08/04 03:40:52;;;;;;;14.88;13.57;;;;;;;;;;4750066;30;20028;-95
2023/08/04 03:43:21;;;;;;;13.02;11.50;;;;;;;;;;4758179;30;20041;-95
2023/08/04 03:45:50;;;;;;;13.60;12.20;;;;;;;;;;4754273;30;20368;-96
2023/08/04 03:48:16;;;;;;;14.02;12.55;;;;;;;;;;4740264;30;20036;-96
2023/08/04 03:50:52;;;;;;;17.33;15.48;;;;;;;;;;4739676;30;20033;-95
2023/08/04 03:53:18;;;;;;;13.43;12.23;;;;;;;;;;4739530;30;20039;-96
2023/08/04 03:55:45;;;;;;;14.60;13.20;;;;;;;;;;4741539;30;20091;-95
2023/08/04 03:58:11;;;;;;;15.35;13.32;;;;;;;;;;4739343;30;20419;-96
2023/08/04 04:00:42;;;;;;;13.95;12.73;;;;;;;;;;4740275;30;20031;-96
2023/08/04 04:03:08;;;;;;;16.00;13.50;;;;;;;;;;4740992;30;20041;-96
2023/08/04 04:05:34;;;;;;;13.18;12.02;;;;;;;;;;4738622;30;20069;-96
2023/08/04 04:08:01;;;;;;;15.60;14.20;;;;;;;;;;4738450;30;20039;-96
2023/08/04 04:10:27;;;;;;;15.55;14.20;;;;;;;;;;4738280;30;20025;-96
2023/08/04 04:12:53;;;;;;;16.33;15.00;;;;;;;;;;4738210;30;20475;-95
2023/08/04 04:15:26;;;;;;;16.10;14.48;;;;;;;;;;4738001;30;20029;-93
2023/08/04 04:17:52;;;;;;;17.45;15.93;;;;;;;;;;4730146;30;20048;-96
2023/08/04 04:20:21;;;;;;;19.27;17.63;;;;;;;;;;4741424;30;20085;-95
2023/08/04 04:22:47;;;;;;;19.73;17.90;;;;;;;;;;4740709;30;20463;-95
2023/08/04 04:25:17;;;;;;;22.20;20.55;;;;;;;;;;4720557;30;20037;-95
2023/08/04 04:27:56;;;;;;;24.63;22.85;;;;;;;;;;4733820;30;20043;-95
2023/08/04 04:30:25;;;;;;;26.67;24.77;;;;;;;;;;4731323;30;20345;-95
2023/08/04 04:32:52;;;;;;;25.75;23.90;;;;;;;;;;4737818;30;20033;-94
2023/08/04 04:35:18;;;;;;;26.77;24.80;;;;;;;;;;4737680;30;20055;-95
2023/08/04 04:37:54;;;;;;;20.60;18.85;;;;;;;;;;4738161;30;20029;-96
2023/08/04 04:40:26;;;;;;;33.00;30.55;;;;;;;;;;4740319;30;20118;-95
2023/08/04 04:43:01;;;;;;;31.45;29.45;;;;;;;;;;4739585;30;20398;-96
2023/08/04 04:45:51;;;;;;;24.17;22.23;;;;;;;;;;4739178;30;20415;-95
2023/08/04 04:48:23;;;;;;;23.35;21.65;;;;;;;;;;4739385;30;20037;-95
2023/08/04 04:50:59;;;;;;;21.42;19.80;;;;;;;;;;4739213;30;20029;-96
2023/08/04 04:53:28;;;;;;;27.60;25.30;;;;;;;;;;4741559;30;20094;-96
2023/08/04 04:59:04;;;;;;;25.85;23.27;;;;;;;;;;4739839;30;20128;-93
2023/08/04 05:01:30;;;;;;;22.10;20.27;;;;;;;;;;4737357;30;20033;-95
2023/08/04 05:04:12;;;;;;;23.20;21.20;;;;;;;;;;4738310;30;20037;-95
2023/08/04 05:06:46;;;;;;;23.90;21.88;;;;;;;;;;4740903;30;20124;-96
2023/08/04 05:09:30;;;;;;;22.63;20.80;;;;;;;;;;4724027;30;20063;-95
2023/08/04 05:12:08;;;;;;;25.00;23.30;;;;;;;;;;4736325;30;20040;-95
2023/08/04 05:15:07;;;;;;;25.80;23.65;;;;;;;;;;4723722;30;20037;-93
2023/08/04 05:20:27;;;;;;;32.70;30.60;;;;;;;;;;4901606;24;20086;-93
2023/08/04 05:22:59;;;;;;;36.88;34.28;;;;;;;;;;4739622;30;20131;-93
2023/08/04 05:25:32;;;;;;;28.17;26.13;;;;;;;;;;4738712;30;20513;-93
2023/08/04 05:39:12;;;;;;;34.28;32.05;;;;;;;;;;4927851;24;20091;-96
2023/08/04 05:41:51;;;;;;;38.53;36.22;;;;;;;;;;4758088;30;20032;-92
2023/08/04 05:44:22;;;;;;;35.58;33.28;;;;;;;;;;4762705;30;20383;-93
2023/08/04 05:46:50;;;;;;;38.72;36.13;;;;;;;;;;4769139;30;20035;-93
2023/08/04 05:49:17;;;;;;;40.38;37.70;;;;;;;;;;4768774;30;20027;-93
2023/08/04 05:51:43;;;;;;;35.33;33.10;;;;;;;;;;4766357;30;20032;-92
2023/08/04 05:54:28;;;;;;;39.20;36.70;;;;;;;;;;4757062;30;20031;-92
2023/08/04 05:57:19;;;;;;;43.15;40.45;;;;;;;;;;4765046;30;20063;-92
2023/08/04 06:00:21;;;;;;;39.75;37.30;;;;;;;;;;4766184;30;20046;-94
2023/08/04 06:02:52;;;;;;;40.42;37.92;;;;;;;;;;4709185;30;20056;-93
2023/08/04 06:05:19;;;;;;;41.63;39.08;;;;;;;;;;4703190;30;20190;-92
2023/08/04 06:07:47;;;;;;;42.97;40.08;;;;;;;;;;4756418;30;20039;-93
2023/08/04 06:16:23;;;;;;;38.53;35.95;;;;;;;;;;4728669;30;20056;-94
2023/08/04 06:19:10;;;;;;;35.40;33.17;;;;;;;;;;4709895;30;20057;-93
2023/08/04 06:21:50;;;;;;;38.80;36.45;;;;;;;;;;4717249;30;20399;-93
2023/08/04 06:33:41;;;;;;;39.85;37.35;;;;;;;;;;4717057;30;20317;-94
2023/08/04 06:39:49;;;;;;;45.92;42.88;;;;;;;;;;4698830;30;20419;-92
2023/08/04 06:48:01;;;;;;;47.75;44.97;;;;;;;;;;5725970;24;20141;-93
2023/08/04 06:51:09;;;;;;;51.85;48.67;;;;;;;;;;4790615;24;20099;-93
2023/08/04 07:09:04;;;;;;;48.97;45.97;;;;;;;;;;4699235;30;20056;-93
2023/08/04 07:39:34;;;;;;;73.03;68.90;;;;;;;;;;5263558;24;20756;-94
2023/08/04 07:42:30;;;;;;;;;;;;;;;;;;;;;
2023/08/04 07:45:15;;;;;;;81.95;77.50;;;;;;;;;;4739063;30;20047;-94
2023/08/04 07:55:25;;;;;;;85.28;80.35;;;;;;;;;;4856665;24;20058;-93
2023/08/04 07:58:24;;;;;;;86.97;82.05;;;;;;;;;;4768895;30;20126;-93
2023/08/04 08:03:45;;;;;;;84.38;79.70;;;;;;;;;;4780989;30;20069;-93
2023/08/04 08:09:22;;;;;;;85.78;80.95;;;;;;;;;;4720386;30;20044;-94
2023/08/04 08:11:49;;;;;;;79.40;75.00;;;;;;;;;;4719863;30;20050;-93
2023/08/04 08:14:30;;;;;;;79.55;75.13;;;;;;;;;;4731765;30;20045;-92
2023/08/04 08:17:16;;;;;;;76.70;72.30;;;;;;;;;;4710888;30;20052;-93
2023/08/04 08:19:42;;;;;;;85.82;81.13;;;;;;;;;;4705219;30;20096;-92
2023/08/04 08:28:19;;;;;;;83.03;78.35;;;;;;;;;;4693750;30;20621;-92
2023/08/04 08:30:52;;;;;;;80.18;75.70;;;;;;;;;;4663942;30;20133;-93
2023/08/04 08:33:27;;;;;;;80.40;75.95;;;;;;;;;;4692678;30;20038;-92
2023/08/04 08:35:57;;;;;;;89.05;84.05;;;;;;;;;;4701374;30;20057;-93
2023/08/04 08:38:32;;;;;;;78.10;73.78;;;;;;;;;;4696640;30;20053;-92
2023/08/04 08:42:01;;;;;;;72.30;68.25;;;;;;;;;;4686475;30;20540;-92
2023/08/04 08:43:59;;;;;;;76.53;72.40;;;;;;;;;;4684736;30;20199;-93
2023/08/04 08:55:48;;;;;;;60.85;57.25;;;;;;;;;;4700587;30;20032;-94
2023/08/04 08:58:21;;;;;;;65.68;61.90;;;;;;;;;;4698543;30;20067;-95
2023/08/04 09:00:47;;;;;;;;;;;;;;;;;;4739445;30;20037;-91
2023/08/04 09:03:17;;;;;;;63.60;60.00;;;;;;;;;;4739352;30;19910;-90
2023/08/04 09:05:43;;;;;;;62.88;59.22;;;;;;;;;;4739241;30;20039;-91
2023/08/04 09:08:12;;;;;;;82.90;78.32;;;;;;;;;;4739530;30;20057;-91
2023/08/04 09:10:44;;;;;;;82.28;77.68;;;;;;;;;;4739284;30;20399;-92
2023/08/04 09:13:12;;;;;;;81.82;77.18;;;;;;;;;;4739195;30;20036;-90
2023/08/04 09:15:59;;;;;;;55.88;52.33;;;;;;;;;;4739189;30;20056;-92
2023/08/04 09:18:25;;;;;;;69.32;65.25;;;;;;;;;;4738873;30;20103;-91
2023/08/04 09:21:23;;;;;;;68.78;64.88;;;;;;;;;;4738045;30;20557;-92
2023/08/04 09:23:59;;;;;;;69.88;65.82;;;;;;;;;;4690303;30;20127;-90
2023/08/04 09:26:25;;;;;;;73.57;69.40;;;;;;;;;;4738599;30;20052;-91
2023/08/04 09:29:07;;;;;;;80.10;75.80;;;;;;;;;;4739008;30;20039;-91
2023/08/04 09:31:40;;;;;;;81.30;76.70;;;;;;;;;;4739221;30;20065;-92
2023/08/04 09:34:12;;;;;;;88.18;83.43;;;;;;;;;;4739047;30;20039;-92
2023/08/04 09:40:00;;;;;;;118.70;112.35;;;;;;;;;;4754187;30;20051;-92
2023/08/04 09:42:53;;;;;;;128.43;121.47;;;;;;;;;;4737892;30;20033;-93
2023/08/04 10:10:34;;;;;;;171.68;162.27;;;;;;;;;;4749138;30;20051;-96
2023/08/04 10:13:09;;;;;;;143.02;135.23;;;;;;;;;;5737228;24;20111;-94
2023/08/04 10:16:06;;;;;;;185.85;175.65;;;;;;;;;;4736283;30;20040;-92
2023/08/04 10:21:37;;;;;;;;;;;;;;;;;;4737012;30;20116;-91
2023/08/04 10:24:24;;;;;;;207.40;195.82;;;;;;;;;;4735265;30;20005;-92
2023/08/04 10:26:54;;;;;;;224.38;211.65;;;;;;;;;;4731189;30;20125;-92
2023/08/04 10:29:20;;;;;;;258.50;243.80;;;;;;;;;;4735012;30;20033;-89
2023/08/04 10:32:07;;;;;;;253.50;239.27;;;;;;;;;;4734854;30;20395;-91
2023/08/04 10:34:33;;;;;;;281.50;265.02;;;;;;;;;;4731397;30;20138;-88
2023/08/04 10:37:09;;;;;;;301.42;283.90;;;;;;;;;;4734988;30;20029;-88
2023/08/04 10:40:03;;;;;;;243.48;229.70;;;;;;;;;;4734634;30;20078;-88
2023/08/04 10:42:31;;;;;;;244.23;230.25;;;;;;;;;;4734623;30;20071;-89
2023/08/04 10:45:10;;;;;;;233.30;220.07;;;;;;;;;;4735260;30;20502;-88
2023/08/04 10:47:46;;;;;;;243.20;229.52;;;;;;;;;;4735034;30;20048;-88
2023/08/04 10:50:22;;;;;;;243.27;229.15;;;;;;;;;;4734595;30;20040;-88
2023/08/04 10:52:54;;;;;;;259.17;244.32;;;;;;;;;;4734238;30;20218;-89
2023/08/04 10:55:39;;;;;;;252.53;238.20;;;;;;;;;;4734809;30;20047;-90
2023/08/04 10:58:17;;;;;;;227.77;214.88;;;;;;;;;;4734432;30;20629;-89
2023/08/04 11:00:43;;;;;;;215.13;203.02;;;;;;;;;;4734746;30;20033;-88
2023/08/04 11:15:12;;;;;;;213.55;201.35;;;;;;;;;;4733799;30;20067;-89
2023/08/04 11:17:48;;;;;;;154.27;145.68;;;;;;;;;;4715587;30;20439;-89
2023/08/04 11:20:17;;;;;;;202.40;190.93;;;;;;;;;;4710212;30;20046;-92
2023/08/04 11:22:47;;;;;;;224.50;211.75;;;;;;;;;;4684936;30;20159;-88
2023/08/04 11:25:22;;;;;;;163.80;154.68;;;;;;;;;;4698720;30;20092;-90
2023/08/04 11:27:51;;;;;;;250.02;235.85;;;;;;;;;;4684907;30;20046;-89
2023/08/04 11:30:17;;;;;;;250.52;236.10;;;;;;;;;;4684854;30;20033;-89
2023/08/04 11:32:49;;;;;;;253.68;238.38;;;;;;;;;;4699151;30;20069;-88
2023/08/04 11:35:15;;;;;;;284.17;267.33;;;;;;;;;;4684760;30;20124;-89
2023/08/04 11:37:42;;;;;;;223.82;210.95;;;;;;;;;;4684558;30;20030;-90
2023/08/04 11:40:21;;;;;;;245.15;230.75;;;;;;;;;;4741147;30;20105;-91
2023/08/04 11:42:50;;;;;;;261.67;246.90;;;;;;;;;;4757329;30;20119;-89
2023/08/04 11:45:17;;;;;;;267.63;252.40;;;;;;;;;;4770065;30;20095;-89
2023/08/04 11:47:43;;;;;;;274.83;258.80;;;;;;;;;;4756685;30;20040;-88
2023/08/04 11:50:10;;;;;;;282.70;266.23;;;;;;;;;;4755309;30;20050;-88
2023/08/04 11:52:38;;;;;;;293.85;277.05;;;;;;;;;;4756718;30;20032;-90
2023/08/04 11:55:07;;;;;;;251.85;237.80;;;;;;;;;;4769865;30;20396;-89
2023/08/04 11:57:36;;;;;;;293.92;276.90;;;;;;;;;;4769448;30;20106;-89
2023/08/04 12:00:02;;;;;;;240.90;227.38;;;;;;;;;;4769721;30;20044;-87
2023/08/04 12:02:29;;;;;;;241.98;228.25;;;;;;;;;;4769256;30;20110;-89
2023/08/04 12:05:08;;;;;;;257.98;243.10;;;;;;;;;;4762440;30;20051;-88
2023/08/04 12:07:34;;;;;;;265.20;250.00;;;;;;;;;;4758373;30;20551;-89
2023/08/04 12:10:00;;;;;;;255.82;241.27;;;;;;;;;;4762764;30;20032;-87
2023/08/04 12:12:36;;;;;;;251.07;236.75;;;;;;;;;;4769902;30;20063;-88
2023/08/04 12:15:02;;;;;;;253.35;238.93;;;;;;;;;;4758447;30;20034;-88
2023/08/04 12:17:38;;;;;;;270.48;255.20;;;;;;;;;;4758908;30;20031;-89
2023/08/04 12:20:04;;;;;;;275.88;260.02;;;;;;;;;;4770198;30;20046;-88
2023/08/04 12:22:31;;;;;;;274.33;259.02;;;;;;;;;;4772773;30;20028;-90
2023/08/04 12:24:57;;;;;;;272.75;257.33;;;;;;;;;;4760541;30;20043;-88
2023/08/04 12:27:23;;;;;;;270.55;254.93;;;;;;;;;;4773591;30;20520;-88
2023/08/04 12:29:49;;;;;;;255.80;241.63;;;;;;;;;;4769146;30;20119;-88
2023/08/04 12:32:15;;;;;;;266.55;251.38;;;;;;;;;;4772564;30;20042;-88
2023/08/04 12:34:41;;;;;;;259.70;245.35;;;;;;;;;;4757749;30;20036;-88
2023/08/04 12:37:07;;;;;;;262.45;247.50;;;;;;;;;;4770562;30;20036;-88
2023/08/04 12:39:34;;;;;;;279.48;263.55;;;;;;;;;;4770728;30;20098;-87
2023/08/04 12:42:00;;;;;;;236.25;223.20;;;;;;;;;;4764004;30;20032;-89
2023/08/04 12:44:51;;;;;;;257.65;243.02;;;;;;;;;;4772331;30;20040;-90
2023/08/04 12:47:17;;;;;;;227.30;214.65;;;;;;;;;;4760541;30;20028;-88
2023/08/04 12:49:43;;;;;;;264.42;249.35;;;;;;;;;;4758774;30;20058;-91
2023/08/04 12:52:09;;;;;;;239.50;225.68;;;;;;;;;;4774817;30;20112;-87
2023/08/04 12:54:35;;;;;;;268.20;252.95;;;;;;;;;;4775777;30;20079;-88
2023/08/04 12:57:01;;;;;;;272.23;256.50;;;;;;;;;;4757973;30;20035;-89
2023/08/04 12:59:28;;;;;;;249.60;235.35;;;;;;;;;;4757555;30;20047;-92
2023/08/04 13:04:39;;;;;;;275.77;259.95;;;;;;;;;;4766295;30;20058;-90
2023/08/04 13:07:05;;;;;;;269.15;253.52;;;;;;;;;;4757807;30;20403;-92
2023/08/04 13:09:31;;;;;;;248.70;234.32;;;;;;;;;;4753267;30;20036;-91
2023/08/04 13:12:02;;;;;;;281.27;265.08;;;;;;;;;;4738792;30;20217;-90
2023/08/04 13:14:31;;;;;;;242.13;228.75;;;;;;;;;;4738733;30;20123;-92
2023/08/04 13:17:03;;;;;;;261.08;246.27;;;;;;;;;;4738121;30;20040;-92
2023/08/04 13:19:32;;;;;;;269.05;253.95;;;;;;;;;;4739177;30;20135;-93
2023/08/04 13:21:58;;;;;;;255.13;240.52;;;;;;;;;;4738989;30;20123;-93
2023/08/04 13:24:28;;;;;;;245.23;231.13;;;;;;;;;;4738607;30;20486;-90
2023/08/04 13:27:07;;;;;;;251.55;237.10;;;;;;;;;;4738414;30;20040;-92
2023/08/04 13:29:40;;;;;;;248.10;234.07;;;;;;;;;;4738011;30;20048;-92
2023/08/04 13:32:09;;;;;;;246.02;232.20;;;;;;;;;;4738566;30;20024;-91
2023/08/04 13:34:59;;;;;;;208.93;196.88;;;;;;;;;;4738026;30;20195;-93
2023/08/04 13:37:26;;;;;;;209.10;197.15;;;;;;;;;;4748812;30;20146;-93
2023/08/04 13:39:56;;;;;;;248.85;234.40;;;;;;;;;;4743085;30;20052;-91
2023/08/04 13:42:22;;;;;;;232.27;219.13;;;;;;;;;;4756889;30;20032;-90
2023/08/04 13:44:48;;;;;;;260.05;245.25;;;;;;;;;;4756506;30;20039;-92
2023/08/04 13:47:25;;;;;;;220.88;208.43;;;;;;;;;;4756561;30;20535;-91
2023/08/04 13:49:51;;;;;;;226.27;213.30;;;;;;;;;;4739420;30;20482;-89
2023/08/04 13:52:17;;;;;;;196.18;184.93;;;;;;;;;;4739082;30;20067;-91
2023/08/04 13:54:43;;;;;;;235.95;222.10;;;;;;;;;;4739005;30;20032;-91
2023/08/04 13:57:09;;;;;;;222.85;210.13;;;;;;;;;;4738932;30;20036;-91
2023/08/04 13:59:41;;;;;;;234.90;221.90;;;;;;;;;;4746993;30;20052;-90
2023/08/04 14:02:10;;;;;;;208.05;196.32;;;;;;;;;;4756297;30;20024;-93
2023/08/04 14:04:40;;;;;;;169.13;159.50;;;;;;;;;;4753062;30;20134;-92
2023/08/04 14:07:12;;;;;;;209.43;197.27;;;;;;;;;;4763642;30;20027;-93
2023/08/04 14:09:42;;;;;;;224.13;211.27;;;;;;;;;;4761568;30;20105;-91
2023/08/04 14:12:08;;;;;;;220.02;207.32;;;;;;;;;;4754388;30;20047;-91
2023/08/04 14:14:35;;;;;;;150.65;142.23;;;;;;;;;;4754889;30;20043;-91
2023/08/04 14:17:02;;;;;;;227.90;214.25;;;;;;;;;;4756446;30;20032;-92
2023/08/04 14:19:31;;;;;;;246.68;232.38;;;;;;;;;;4753776;30;20182;-91
2023/08/04 14:22:02;;;;;;;198.02;186.93;;;;;;;;;;4754529;30;20039;-91
2023/08/04 14:24:28;;;;;;;208.20;196.05;;;;;;;;;;4754987;30;20043;-91
2023/08/04 14:27:02;;;;;;;184.48;173.43;;;;;;;;;;4753795;30;20509;-93
2023/08/04 14:29:39;;;;;;;238.32;224.80;;;;;;;;;;4753434;30;20032;-92
2023/08/04 14:32:09;;;;;;;169.95;160.45;;;;;;;;;;4754394;30;20036;-90
2023/08/04 14:34:56;;;;;;;210.93;198.73;;;;;;;;;;4752647;30;20066;-93
2023/08/04 14:37:22;;;;;;;168.20;158.73;;;;;;;;;;4752622;30;20039;-91
2023/08/04 14:39:51;;;;;;;211.13;198.77;;;;;;;;;;4752849;30;20044;-90
2023/08/04 14:42:17;;;;;;;154.70;146.00;;;;;;;;;;4752703;30;20089;-91
2023/08/04 14:45:18;;;;;;;223.35;210.57;;;;;;;;;;4752310;30;20051;-89
2023/08/04 14:48:13;;;;;;;158.57;149.93;;;;;;;;;;4752493;30;20040;-91
2023/08/04 14:50:52;;;;;;;142.18;134.27;;;;;;;;;;4742698;30;20395;-90
2023/08/04 14:53:29;;;;;;;144.40;136.30;;;;;;;;;;4751549;30;20028;-92
2023/08/04 14:55:55;;;;;;;157.93;148.98;;;;;;;;;;4734886;30;20406;-91
2023/08/04 14:58:22;;;;;;;220.43;207.60;;;;;;;;;;4748807;30;20036;-94
2023/08/04 15:00:55;;;;;;;164.68;155.43;;;;;;;;;;4752731;30;20044;-94
2023/08/04 15:03:36;;;;;;;156.73;147.73;;;;;;;;;;4753379;30;20471;-94
2023/08/04 15:06:24;;;;;;;207.85;196.10;;;;;;;;;;4765548;30;20051;-94
2023/08/04 15:08:55;;;;;;;175.05;165.27;;;;;;;;;;4771895;30;20035;-92
2023/08/04 15:11:24;;;;;;;170.55;161.10;;;;;;;;;;4772969;30;20482;-91
2023/08/04 15:13:50;;;;;;;245.82;231.77;;;;;;;;;;4770558;30;20031;-91
2023/08/04 15:16:16;;;;;;;246.05;231.80;;;;;;;;;;4770417;30;20035;-92
2023/08/04 15:18:43;;;;;;;165.30;155.90;;;;;;;;;;4769974;30;20043;-91
2023/08/04 15:21:09;;;;;;;242.57;228.98;;;;;;;;;;4770385;30;20067;-92
2023/08/04 15:23:38;;;;;;;185.18;174.90;;;;;;;;;;4770282;30;20035;-93
2023/08/04 15:26:05;;;;;;;222.95;210.43;;;;;;;;;;4769833;30;20040;-92
2023/08/04 15:28:31;;;;;;;238.55;225.07;;;;;;;;;;4758447;30;20032;-92
2023/08/04 15:31:09;;;;;;;209.10;197.48;;;;;;;;;;4752289;30;20040;-90
2023/08/04 15:34:05;;;;;;;168.77;159.32;;;;;;;;;;4752098;30;20036;-91
2023/08/04 15:36:34;;;;;;;163.50;154.30;;;;;;;;;;4752492;30;20043;-91
2023/08/04 15:39:00;;;;;;;213.52;201.25;;;;;;;;;;4753257;30;20044;-91
2023/08/04 15:41:27;;;;;;;153.93;145.30;;;;;;;;;;4756113;30;20040;-91
2023/08/04 15:44:17;;;;;;;149.45;141.27;;;;;;;;;;4756014;30;20044;-92
2023/08/04 15:46:46;;;;;;;131.10;123.90;;;;;;;;;;4757549;30;20028;-92
2023/08/04 15:49:13;;;;;;;152.73;144.52;;;;;;;;;;4762846;30;20047;-92
2023/08/04 15:51:42;;;;;;;152.38;143.75;;;;;;;;;;4778867;30;20099;-92
2023/08/04 15:54:11;;;;;;;135.82;128.07;;;;;;;;;;4772916;30;20048;-90
2023/08/04 15:57:06;;;;;;;158.82;150.02;;;;;;;;;;4767462;30;20043;-91
2023/08/04 15:59:32;;;;;;;183.43;172.75;;;;;;;;;;4757396;30;20135;-91
2023/08/04 16:02:01;;;;;;;165.80;156.65;;;;;;;;;;4756185;30;20025;-90
2023/08/04 16:04:27;;;;;;;234.77;221.35;;;;;;;;;;4773288;30;20094;-91
2023/08/04 16:06:53;;;;;;;170.32;160.63;;;;;;;;;;4757962;30;20088;-93
2023/08/04 16:09:20;;;;;;;159.63;151.00;;;;;;;;;;4756106;30;20039;-91
2023/08/04 16:11:47;;;;;;;191.35;180.32;;;;;;;;;;4755556;30;20058;-92
2023/08/04 16:14:13;;;;;;;153.18;144.77;;;;;;;;;;4755877;30;20044;-92
2023/08/04 16:16:39;;;;;;;183.80;173.43;;;;;;;;;;4756665;30;20032;-91
2023/08/04 16:19:06;;;;;;;158.57;149.93;;;;;;;;;;4756044;30;20401;-93
2023/08/04 16:21:32;;;;;;;155.88;147.40;;;;;;;;;;4756033;30;20034;-91
2023/08/04 16:24:02;;;;;;;215.25;203.20;;;;;;;;;;4755969;30;20032;-92
2023/08/04 16:26:46;;;;;;;148.02;139.63;;;;;;;;;;4755827;30;20062;-91
2023/08/04 16:29:12;;;;;;;153.52;145.07;;;;;;;;;;4755661;30;20038;-92
2023/08/04 16:31:38;;;;;;;174.50;164.85;;;;;;;;;;4756383;30;20024;-93
2023/08/04 16:34:10;;;;;;;164.63;155.45;;;;;;;;;;4756529;30;20424;-91
2023/08/04 16:36:38;;;;;;;151.55;143.10;;;;;;;;;;4755839;30;20044;-93
2023/08/04 16:39:04;;;;;;;153.93;145.45;;;;;;;;;;4755723;30;20044;-93
2023/08/04 16:41:33;;;;;;;155.00;146.30;;;;;;;;;;4755467;30;20028;-92
2023/08/04 16:44:08;;;;;;;142.20;134.25;;;;;;;;;;4754380;30;20051;-92
2023/08/04 16:46:34;;;;;;;137.25;129.82;;;;;;;;;;4739580;30;20036;-93
2023/08/04 16:49:06;;;;;;;130.43;123.13;;;;;;;;;;4740360;30;20194;-92
2023/08/04 16:52:01;;;;;;;150.98;142.73;;;;;;;;;;4753737;30;20072;-91
2023/08/04 16:54:32;;;;;;;129.38;122.38;;;;;;;;;;4754492;30;20040;-92
2023/08/04 16:56:58;;;;;;;137.15;129.60;;;;;;;;;;4754596;30;20092;-92
2023/08/04 16:59:24;;;;;;;162.30;153.32;;;;;;;;;;4754516;30;20048;-92
2023/08/04 17:01:53;;;;;;;135.27;127.88;;;;;;;;;;4754165;30;20608;-91
2023/08/04 17:04:31;;;;;;;147.82;139.93;;;;;;;;;;4739686;30;20044;-92
2023/08/04 17:07:00;;;;;;;139.32;131.40;;;;;;;;;;4738746;30;20088;-92
2023/08/04 17:09:29;;;;;;;138.65;130.95;;;;;;;;;;4738777;30;20554;-91
2023/08/04 17:11:55;;;;;;;149.52;141.02;;;;;;;;;;4754005;30;20031;-93